Atlanta, Georgia
Traffic Map
Current Weather Conditions
Atlanta, Georgia
Broken Clouds
Broken Clouds
16°
Feels Like: 16°
Wind Chill: 16° Ceiling: 2500
Heat Index: 16° Visibility: 10mi
Dew Point: 14° Wind: 14mph
Humidity: 87% Direction: 200° (SSW)
Pressure: 29.72in Gusts: 21mph
Raw Report DataKATL 240152Z 20012G18KT 10SM SCT015 BKN025 BKN200 16/14 A2972 RMK AO2 SLP063 T01610139 $
Traffic Incident Summary
Active as of:
Severity:
Category:
InformationThere was an issue retrieving the traffic information for this location. Please try a different location or try again shortly.
Advertisements
Track Severe Weather on mobile